createdAt,value
2018-11-04T00:01:34.870Z,18.60
2018-11-04T00:04:03.600Z,15.30
2018-11-04T00:06:32.290Z,19.43
2018-11-04T00:09:01.016Z,17.50
2018-11-04T00:11:30.067Z,21.73
2018-11-04T00:13:58.769Z,20.23
2018-11-04T00:19:01.424Z,15.13
2018-11-04T00:21:30.225Z,15.93
2018-11-04T00:23:59.002Z,18.60
2018-11-04T00:26:27.862Z,20.27
2018-11-04T00:28:56.626Z,16.30
2018-11-04T00:31:25.311Z,16.40
2018-11-04T00:33:54.146Z,15.03
2018-11-04T00:36:22.936Z,16.70
2018-11-04T00:38:51.645Z,16.65
2018-11-04T00:41:20.430Z,21.17
2018-11-04T00:43:49.255Z,16.15
2018-11-04T00:46:17.965Z,15.63
2018-11-04T00:48:46.891Z,16.63
2018-11-04T00:51:15.631Z,16.05
2018-11-04T00:53:44.350Z,14.73
2018-11-04T00:56:13.108Z,18.13
2018-11-04T00:58:41.820Z,16.23
2018-11-04T01:01:10.590Z,14.35
2018-11-04T01:03:39.840Z,18.95
2018-11-04T01:06:09.752Z,14.45
2018-11-04T01:08:38.443Z,15.63
2018-11-04T01:11:07.170Z,14.37
2018-11-04T01:13:35.874Z,20.43
2018-11-04T01:16:04.676Z,16.52
2018-11-04T01:18:33.579Z,15.60
2018-11-04T01:21:02.386Z,15.70
2018-11-04T01:23:31.131Z,18.73
2018-11-04T01:25:59.877Z,14.00
2018-11-04T01:28:28.608Z,17.85
2018-11-04T01:30:57.301Z,15.63
2018-11-04T01:33:26.177Z,18.10
2018-11-04T01:35:54.867Z,14.40
2018-11-04T01:38:23.535Z,16.35
2018-11-04T01:40:52.638Z,14.75
2018-11-04T01:43:21.316Z,17.37
2018-11-04T01:45:50.082Z,15.60
2018-11-04T01:48:18.883Z,17.17
2018-11-04T01:50:47.670Z,15.13
2018-11-04T01:53:16.362Z,14.30
2018-11-04T01:55:45.189Z,16.12
2018-11-04T01:58:13.894Z,16.70
2018-11-04T02:00:42.606Z,15.40
2018-11-04T02:03:11.581Z,12.87
2018-11-04T02:05:40.294Z,13.57
2018-11-04T02:08:09.711Z,15.45
2018-11-04T02:10:38.521Z,14.13
2018-11-04T02:13:07.207Z,14.97
2018-11-04T02:15:35.891Z,15.90
2018-11-04T02:18:04.705Z,16.50
2018-11-04T02:20:33.390Z,16.03
2018-11-04T02:23:02.086Z,15.13
2018-11-04T02:25:30.834Z,14.43
2018-11-04T02:27:59.551Z,16.27
2018-11-04T02:30:28.210Z,12.07
2018-11-04T02:32:57.028Z,11.97
2018-11-04T02:35:25.742Z,15.58
2018-11-04T02:37:54.472Z,16.93
2018-11-04T02:40:23.287Z,14.00
2018-11-04T02:42:52.038Z,17.47
2018-11-04T02:45:20.815Z,14.83
2018-11-04T02:47:49.648Z,15.57
2018-11-04T02:50:18.481Z,13.77
2018-11-04T02:52:47.133Z,12.75
2018-11-04T02:55:15.879Z,16.17
2018-11-04T02:57:44.602Z,15.13
2018-11-04T03:00:14.899Z,15.33
2018-11-04T03:02:44.003Z,14.33
2018-11-04T03:05:12.888Z,14.68
2018-11-04T03:07:42.292Z,16.13
2018-11-04T03:10:12.329Z,13.87
2018-11-04T03:12:41.230Z,13.97
2018-11-04T03:15:10.202Z,13.87
2018-11-04T03:17:40.040Z,13.65
2018-11-04T03:20:08.805Z,15.08
2018-11-04T03:22:37.543Z,14.50
2018-11-04T03:25:07.056Z,14.87
2018-11-04T03:27:35.839Z,15.80
2018-11-04T03:30:04.672Z,11.93
2018-11-04T03:32:33.510Z,13.37
2018-11-04T03:35:02.195Z,14.40
2018-11-04T03:37:30.979Z,16.97
2018-11-04T03:39:59.723Z,13.10
2018-11-04T03:42:28.408Z,15.70
2018-11-04T03:44:57.111Z,15.40
2018-11-04T03:47:25.994Z,15.80
2018-11-04T03:49:54.708Z,15.53
2018-11-04T03:52:23.421Z,17.93
2018-11-04T03:54:52.182Z,14.93
2018-11-04T03:57:20.893Z,16.12
2018-11-04T03:59:49.611Z,14.63
2018-11-04T04:02:18.422Z,14.58
2018-11-04T04:04:47.116Z,13.40
2018-11-04T04:07:16.122Z,17.17
2018-11-04T04:09:44.942Z,13.80
2018-11-04T04:12:13.651Z,15.67
2018-11-04T04:14:42.357Z,15.73
2018-11-04T04:17:11.228Z,13.53
2018-11-04T04:19:39.904Z,14.13
2018-11-04T04:22:08.591Z,12.67
2018-11-04T04:24:37.412Z,15.50
2018-11-04T04:27:06.278Z,12.20
2018-11-04T04:29:34.995Z,19.40
2018-11-04T04:32:03.888Z,17.67
2018-11-04T04:34:32.602Z,14.03
2018-11-04T04:37:01.327Z,16.20
2018-11-04T04:39:30.061Z,17.70
2018-11-04T04:41:58.871Z,14.60
2018-11-04T04:44:27.654Z,17.70
2018-11-04T04:46:56.501Z,15.18
2018-11-04T04:49:25.242Z,15.43
2018-11-04T04:51:53.986Z,14.00
2018-11-04T04:54:22.738Z,11.73
2018-11-04T04:56:51.438Z,17.83
2018-11-04T04:59:20.185Z,12.47
2018-11-04T05:01:49.102Z,13.13
2018-11-04T05:04:17.776Z,16.67
2018-11-04T05:06:46.515Z,18.17
2018-11-04T05:09:15.395Z,19.47
2018-11-04T05:11:44.101Z,14.53
2018-11-04T05:14:12.817Z,14.40
2018-11-04T05:16:41.691Z,15.23
2018-11-04T05:19:10.391Z,16.23
2018-11-04T05:21:39.973Z,14.63
2018-11-04T05:24:08.787Z,19.03
2018-11-04T05:26:37.753Z,18.30
2018-11-04T05:29:06.641Z,15.90
2018-11-04T05:31:35.429Z,17.33
2018-11-04T05:34:04.197Z,15.33
2018-11-04T05:36:32.948Z,14.70
2018-11-04T05:39:01.806Z,19.43
2018-11-04T05:41:30.589Z,15.97
2018-11-04T05:43:59.300Z,16.70
2018-11-04T05:46:28.151Z,16.37
2018-11-04T05:48:56.860Z,17.23
2018-11-04T05:51:25.566Z,18.97
2018-11-04T05:53:56.937Z,20.57
2018-11-04T05:56:25.625Z,19.32
2018-11-04T05:58:54.338Z,17.85
2018-11-04T06:01:23.253Z,16.57
2018-11-04T06:03:52.002Z,18.13
2018-11-04T06:06:20.772Z,15.35
2018-11-04T06:08:49.813Z,18.10
2018-11-04T06:11:18.670Z,14.30
2018-11-04T06:13:47.413Z,16.93
2018-11-04T06:16:16.434Z,16.17
2018-11-04T06:18:45.126Z,17.70
2018-11-04T06:21:13.846Z,15.90
2018-11-04T06:23:42.638Z,15.57
2018-11-04T06:26:11.347Z,14.50
2018-11-04T06:28:40.270Z,13.83
2018-11-04T06:31:09.135Z,20.40
2018-11-04T06:33:37.832Z,19.03
2018-11-04T06:36:06.767Z,19.80
2018-11-04T06:38:35.525Z,14.80
2018-11-04T06:41:04.265Z,14.50
2018-11-04T06:43:32.984Z,14.47
2018-11-04T06:46:01.845Z,17.37
2018-11-04T06:48:30.539Z,16.37
2018-11-04T06:50:59.235Z,13.53
2018-11-04T06:53:28.092Z,15.50
2018-11-04T06:55:57.698Z,15.77
2018-11-04T06:58:26.406Z,17.02
2018-11-04T07:00:55.246Z,14.13
2018-11-04T07:03:24.022Z,15.40
2018-11-04T07:05:52.859Z,16.27
2018-11-04T07:08:21.787Z,16.30
2018-11-04T07:10:50.502Z,16.60
2018-11-04T07:13:19.417Z,13.73
2018-11-04T07:15:48.201Z,15.00
2018-11-04T07:18:16.939Z,14.57
2018-11-04T07:20:45.841Z,18.90
2018-11-04T07:23:14.906Z,16.80
2018-11-04T07:25:43.701Z,19.30
2018-11-04T07:28:12.300Z,14.25
2018-11-04T07:30:41.141Z,13.30
2018-11-04T07:33:10.345Z,15.13
2018-11-04T07:35:39.183Z,18.90
2018-11-04T07:38:08.116Z,17.60
2018-11-04T07:40:36.912Z,17.03
2018-11-04T07:43:06.217Z,18.97
2018-11-04T07:45:35.019Z,16.87
2018-11-04T07:48:03.768Z,16.60
2018-11-04T07:50:32.493Z,18.60
2018-11-04T07:53:01.369Z,17.32
2018-11-04T07:55:30.126Z,23.20
2018-11-04T07:57:58.827Z,17.13
2018-11-04T08:00:27.554Z,19.17
2018-11-04T08:02:56.259Z,19.23
2018-11-04T08:05:24.966Z,23.10
2018-11-04T08:07:53.888Z,21.13
2018-11-04T08:10:22.639Z,21.87
2018-11-04T08:12:51.359Z,22.48
2018-11-04T08:15:20.360Z,24.23
2018-11-04T08:17:49.155Z,26.15
2018-11-04T08:20:17.973Z,26.57
2018-11-04T08:22:46.701Z,26.67
2018-11-04T08:25:15.435Z,28.23
2018-11-04T08:27:44.375Z,28.93
2018-11-04T08:30:13.115Z,26.63
2018-11-04T08:32:41.839Z,29.87
2018-11-04T08:35:10.597Z,26.27
2018-11-04T08:37:40.541Z,30.17
2018-11-04T08:40:09.375Z,30.17
2018-11-04T08:42:38.004Z,33.33
2018-11-04T08:45:07.786Z,31.97
2018-11-04T08:47:36.581Z,30.07
2018-11-04T08:50:06.543Z,35.27
2018-11-04T08:52:35.713Z,40.73
2018-11-04T08:55:04.498Z,45.07
2018-11-04T08:57:33.191Z,37.63
2018-11-04T09:00:02.051Z,38.33
2018-11-04T09:02:30.765Z,44.40
2018-11-04T09:04:59.455Z,45.23
2018-11-04T09:07:28.218Z,44.50
2018-11-04T09:09:56.924Z,45.85
2018-11-04T09:12:25.599Z,43.00
2018-11-04T09:14:54.431Z,43.50
2018-11-04T09:17:23.317Z,48.50
2018-11-04T09:19:51.959Z,50.57
2018-11-04T09:22:20.856Z,60.67
2018-11-04T09:24:49.530Z,56.13
2018-11-04T09:27:18.279Z,55.45
2018-11-04T09:29:47.123Z,49.60
2018-11-04T09:32:15.855Z,56.03
2018-11-04T09:34:44.609Z,53.83
2018-11-04T09:37:13.444Z,59.93
2018-11-04T09:39:42.198Z,58.43
2018-11-04T09:42:10.943Z,50.10
2018-11-04T09:44:40.999Z,53.57
2018-11-04T09:47:10.539Z,56.55
2018-11-04T09:49:39.233Z,59.60
2018-11-04T09:52:08.067Z,55.87
2018-11-04T09:54:36.786Z,58.33
2018-11-04T09:57:05.583Z,61.02
2018-11-04T09:59:34.444Z,65.63
2018-11-04T10:02:03.474Z,56.67
2018-11-04T10:04:32.137Z,51.87
2018-11-04T10:07:00.930Z,57.17
2018-11-04T10:09:29.675Z,57.67
2018-11-04T10:11:58.386Z,59.27
2018-11-04T10:14:27.234Z,56.55
2018-11-04T10:16:55.899Z,58.97
2018-11-04T10:19:24.886Z,52.70
2018-11-04T10:21:53.600Z,48.90
2018-11-04T10:24:22.328Z,48.07
2018-11-04T10:26:51.282Z,54.30
2018-11-04T10:29:20.165Z,49.37
2018-11-04T10:31:48.912Z,45.13
2018-11-04T10:34:17.673Z,45.48
2018-11-04T10:36:46.511Z,51.03
2018-11-04T10:39:15.237Z,46.60
2018-11-04T10:41:44.421Z,43.60
2018-11-04T10:44:13.288Z,50.37
2018-11-04T10:46:41.989Z,50.43
2018-11-04T10:49:10.745Z,45.10
2018-11-04T10:51:39.445Z,45.80
2018-11-04T10:54:08.208Z,48.57
2018-11-04T10:56:36.985Z,48.70
2018-11-04T10:59:06.136Z,47.17
2018-11-04T11:01:34.880Z,55.53
2018-11-04T11:04:03.639Z,47.30
2018-11-04T11:06:32.385Z,48.90
2018-11-04T11:09:01.149Z,47.33
2018-11-04T11:11:29.853Z,44.60
2018-11-04T11:13:58.666Z,42.43
2018-11-04T11:16:27.354Z,46.60
2018-11-04T11:18:56.110Z,48.92
2018-11-04T11:21:25.082Z,51.13
2018-11-04T11:23:53.892Z,48.58
2018-11-04T11:26:22.651Z,47.60
2018-11-04T11:28:51.410Z,44.77
2018-11-04T11:31:20.102Z,42.95
2018-11-04T11:33:48.782Z,46.33
2018-11-04T11:36:17.591Z,46.77
2018-11-04T11:38:46.314Z,49.53
2018-11-04T11:41:15.023Z,41.68
2018-11-04T11:43:43.835Z,42.35
2018-11-04T11:46:12.599Z,42.83
2018-11-04T11:48:41.328Z,40.57
2018-11-04T11:51:10.734Z,41.17
2018-11-04T11:53:39.428Z,43.37
2018-11-04T11:56:08.164Z,42.47
2018-11-04T11:58:37.058Z,41.80
2018-11-04T12:01:05.864Z,45.28
2018-11-04T12:03:34.550Z,40.97
2018-11-04T12:06:03.331Z,40.63
2018-11-04T12:08:32.044Z,43.60
2018-11-04T12:11:00.718Z,43.13
2018-11-04T12:13:29.644Z,41.70
2018-11-04T12:15:58.435Z,42.33
2018-11-04T12:18:27.223Z,43.47
2018-11-04T12:20:56.121Z,41.20
2018-11-04T12:23:24.903Z,42.87
2018-11-04T12:25:53.646Z,38.80
2018-11-04T12:28:22.545Z,40.93
2018-11-04T12:30:51.230Z,39.70
2018-11-04T12:33:19.934Z,37.63
2018-11-04T12:35:48.816Z,37.53
2018-11-04T12:38:17.530Z,47.03
2018-11-04T12:40:46.310Z,39.60
2018-11-04T12:43:15.143Z,43.33
2018-11-04T12:45:43.951Z,39.37
2018-11-04T12:48:12.584Z,36.23
2018-11-04T12:50:41.974Z,36.53
2018-11-04T12:53:10.879Z,39.88
2018-11-04T12:55:39.559Z,39.37
2018-11-04T12:58:08.306Z,38.60
2018-11-04T13:00:37.115Z,36.73
2018-11-04T13:03:06.512Z,38.77
2018-11-04T13:05:35.288Z,38.23
2018-11-04T13:08:04.082Z,38.02
2018-11-04T13:10:32.919Z,37.87
2018-11-04T13:13:01.710Z,37.70
2018-11-04T13:15:30.487Z,39.13
2018-11-04T13:17:59.230Z,37.57
2018-11-04T13:20:28.114Z,40.07
2018-11-04T13:22:56.820Z,38.80
2018-11-04T13:25:25.588Z,37.30
2018-11-04T13:27:54.322Z,55.00
2018-11-04T13:30:23.026Z,40.75
2018-11-04T13:32:51.778Z,38.05
2018-11-04T13:35:20.683Z,36.68
2018-11-04T13:37:49.461Z,38.57
2018-11-04T13:40:18.179Z,38.40
2018-11-04T13:42:47.135Z,39.58
2018-11-04T13:45:15.895Z,38.25
2018-11-04T13:47:44.566Z,37.63
2018-11-04T13:50:14.744Z,41.80
2018-11-04T13:52:44.260Z,38.87
2018-11-04T13:55:13.062Z,40.73
2018-11-04T13:57:42.179Z,39.60
2018-11-04T14:00:13.948Z,40.87
2018-11-04T14:02:43.654Z,36.37
2018-11-04T14:05:12.464Z,41.93
2018-11-04T14:07:42.067Z,40.63
2018-11-04T14:10:12.938Z,39.03
2018-11-04T14:12:42.362Z,38.73
2018-11-04T14:15:11.486Z,40.65
2018-11-04T14:17:41.245Z,38.67
2018-11-04T14:20:11.314Z,41.03
2018-11-04T14:22:40.469Z,41.30
2018-11-04T14:25:12.194Z,42.80
2018-11-04T14:27:41.213Z,39.40
2018-11-04T14:30:12.057Z,41.17
2018-11-04T14:32:41.412Z,43.07
2018-11-04T14:35:11.928Z,40.73
2018-11-04T14:37:42.644Z,40.73
2018-11-04T14:40:13.361Z,45.53
2018-11-04T14:42:43.157Z,40.48
2018-11-04T14:45:14.333Z,46.37
2018-11-04T14:47:43.074Z,51.57
2018-11-04T14:52:57.964Z,41.87
2018-11-04T14:55:26.682Z,41.43
2018-11-04T14:57:55.388Z,43.63
2018-11-04T15:00:24.110Z,40.53
2018-11-04T15:02:52.903Z,43.93
2018-11-04T15:05:22.027Z,46.13
2018-11-04T15:07:50.909Z,43.25
2018-11-04T15:10:19.745Z,42.40
2018-11-04T15:12:48.470Z,47.07
2018-11-04T15:15:17.953Z,47.60
2018-11-04T15:17:46.750Z,45.23
2018-11-04T15:20:15.490Z,45.20
2018-11-04T15:22:48.979Z,46.13
2018-11-04T15:25:19.974Z,44.77
2018-11-04T15:27:49.231Z,43.77
2018-11-04T15:30:18.090Z,45.83
2018-11-04T15:32:48.220Z,41.77
2018-11-04T15:35:17.928Z,43.77
2018-11-04T15:37:46.836Z,42.87
2018-11-04T15:40:16.488Z,43.80
2018-11-04T15:42:45.282Z,39.60
2018-11-04T15:45:15.100Z,38.77
2018-11-04T15:47:46.472Z,45.50
2018-11-04T15:50:17.470Z,40.45
2018-11-04T15:52:46.838Z,41.63
2018-11-04T15:55:15.771Z,43.73
2018-11-04T15:57:44.502Z,41.33
2018-11-04T16:00:14.623Z,44.50
2018-11-04T16:02:43.504Z,39.70
2018-11-04T16:05:12.608Z,38.33
2018-11-04T16:07:41.420Z,40.25
2018-11-04T16:10:10.987Z,39.67
2018-11-04T16:12:40.099Z,37.60
2018-11-04T16:15:10.875Z,39.87
2018-11-04T16:17:39.755Z,41.67
2018-11-04T16:20:10.426Z,36.70
2018-11-04T16:22:39.825Z,37.38
2018-11-04T16:25:08.982Z,39.67
2018-11-04T16:27:37.924Z,39.43
2018-11-04T16:30:08.496Z,42.53
2018-11-04T16:32:37.722Z,40.25
2018-11-04T16:35:07.557Z,42.13
2018-11-04T16:37:36.301Z,40.80
2018-11-04T16:40:05.443Z,41.63
2018-11-04T16:42:34.151Z,44.40
2018-11-04T16:45:03.263Z,45.93
2018-11-04T16:47:32.163Z,48.40
2018-11-04T16:50:00.998Z,48.77
2018-11-04T16:52:29.833Z,44.30
2018-11-04T16:54:58.690Z,47.08
2018-11-04T16:57:27.763Z,46.13
2018-11-04T16:59:56.537Z,44.77
2018-11-04T17:02:25.366Z,49.65
2018-11-04T17:04:54.288Z,51.30
2018-11-04T17:07:23.007Z,51.75
2018-11-04T17:09:51.949Z,53.13
2018-11-04T17:12:20.690Z,51.50
2018-11-04T17:14:49.783Z,48.15
2018-11-04T17:17:18.674Z,47.83
2018-11-04T17:19:47.465Z,51.95
2018-11-04T17:22:16.287Z,50.27
2018-11-04T17:24:45.142Z,53.13
2018-11-04T17:27:13.934Z,62.80
2018-11-04T17:29:42.827Z,56.00
2018-11-04T17:32:11.666Z,55.33
2018-11-04T17:34:41.447Z,52.10
2018-11-04T17:37:10.562Z,52.73
2018-11-04T17:39:39.311Z,53.27
2018-11-04T17:42:08.051Z,61.93
2018-11-04T17:44:36.879Z,59.50
2018-11-04T17:47:05.762Z,65.03
2018-11-04T17:49:34.505Z,59.97
2018-11-04T17:52:03.267Z,60.97
2018-11-04T17:54:32.283Z,57.83
2018-11-04T17:57:01.049Z,61.57
2018-11-04T17:59:29.805Z,62.63
2018-11-04T18:01:58.760Z,62.38
2018-11-04T18:04:27.498Z,59.95
2018-11-04T18:06:56.371Z,64.37
2018-11-04T18:09:25.220Z,62.62
2018-11-04T18:11:53.909Z,68.77
2018-11-04T18:14:22.696Z,67.47
2018-11-04T18:16:51.625Z,64.63
2018-11-04T18:19:20.422Z,66.55
2018-11-04T18:21:49.198Z,59.57
2018-11-04T18:24:18.095Z,61.70
2018-11-04T18:26:46.841Z,63.73
2018-11-04T18:29:15.574Z,60.17
2018-11-04T18:31:44.466Z,64.03
2018-11-04T18:34:13.636Z,60.97
2018-11-04T18:36:42.370Z,59.03
2018-11-04T18:39:12.043Z,63.20
2018-11-04T18:41:41.622Z,61.07
2018-11-04T18:44:10.461Z,68.00
2018-11-04T18:46:39.281Z,64.80
2018-11-04T18:49:08.084Z,57.23
2018-11-04T18:51:37.188Z,57.83
2018-11-04T18:54:06.137Z,61.63
2018-11-04T18:56:36.633Z,60.80
2018-11-04T18:59:05.895Z,66.13
2018-11-04T19:01:35.076Z,58.23
2018-11-04T19:04:03.994Z,61.87
2018-11-04T19:06:32.772Z,65.37
2018-11-04T19:09:02.016Z,64.47
2018-11-04T19:11:30.954Z,62.87
2018-11-04T19:13:59.702Z,61.97
2018-11-04T19:16:28.577Z,60.73
2018-11-04T19:18:58.300Z,68.30
2018-11-04T19:21:27.053Z,70.73
2018-11-04T19:23:55.957Z,63.65
2018-11-04T19:26:24.702Z,64.62
2018-11-04T19:28:53.506Z,66.43
2018-11-04T19:31:22.594Z,69.32
2018-11-04T19:33:51.624Z,71.00
2018-11-04T19:36:20.702Z,68.60
2018-11-04T19:38:49.550Z,64.43
2018-11-04T19:41:18.282Z,73.95
2018-11-04T19:43:47.065Z,72.95
2018-11-04T19:46:15.871Z,65.13
2018-11-04T19:48:44.703Z,69.87
2018-11-04T19:51:13.615Z,69.83
2018-11-04T19:53:42.365Z,67.10
2018-11-04T19:56:12.317Z,71.53
2018-11-04T19:58:41.839Z,69.47
2018-11-04T20:01:11.171Z,71.77
2018-11-04T20:03:39.968Z,71.60
2018-11-04T20:06:08.762Z,77.87
2018-11-04T20:08:40.700Z,76.87
2018-11-04T20:11:09.771Z,70.20
2018-11-04T20:13:44.199Z,79.07
2018-11-04T20:16:12.879Z,77.33
2018-11-04T20:18:47.702Z,88.00
2018-11-04T20:21:16.627Z,78.03
2018-11-04T20:23:45.457Z,75.67
2018-11-04T20:26:15.602Z,70.83
2018-11-04T20:28:44.442Z,66.13
2018-11-04T20:31:18.557Z,74.37
2018-11-04T20:33:49.432Z,76.37
2018-11-04T20:36:18.593Z,70.90
2018-11-04T20:41:47.386Z,74.95
2018-11-04T20:44:16.525Z,76.57
2018-11-04T20:46:45.291Z,67.27
2018-11-04T20:49:19.262Z,73.27
2018-11-04T20:51:48.297Z,76.25
2018-11-04T20:54:16.998Z,114.00
2018-11-04T20:56:51.041Z,94.10
2018-11-04T20:59:19.888Z,82.80
2018-11-04T21:01:48.659Z,79.73
2018-11-04T21:04:17.514Z,82.90
2018-11-04T21:06:46.406Z,78.42
2018-11-04T21:09:15.225Z,77.47
2018-11-04T21:11:44.177Z,77.37
2018-11-04T21:14:12.994Z,81.75
2018-11-04T21:16:42.103Z,81.28
2018-11-04T21:19:10.958Z,81.17
2018-11-04T21:21:39.749Z,78.03
2018-11-04T21:24:08.591Z,79.20
2018-11-04T21:26:37.772Z,83.57
2018-11-04T21:29:06.760Z,84.73
2018-11-04T21:31:35.386Z,83.93
2018-11-04T21:34:04.274Z,87.80
2018-11-04T21:36:33.158Z,88.13
2018-11-04T21:39:01.848Z,94.80
2018-11-04T21:41:30.646Z,86.10
2018-11-04T21:43:59.574Z,88.27
2018-11-04T21:46:28.206Z,89.87
2018-11-04T21:48:57.085Z,97.30
2018-11-04T21:51:25.824Z,89.75
2018-11-04T21:53:54.536Z,87.15
2018-11-04T21:56:23.487Z,93.60
2018-11-04T21:58:52.089Z,84.65
2018-11-04T22:01:20.941Z,88.23
2018-11-04T22:03:50.180Z,91.27
2018-11-04T22:06:18.714Z,99.07
2018-11-04T22:08:47.470Z,94.15
2018-11-04T22:11:16.360Z,96.53
2018-11-04T22:13:45.190Z,99.63
2018-11-04T22:16:14.057Z,95.30
2018-11-04T22:18:43.395Z,91.57
2018-11-04T22:21:12.215Z,92.13
2018-11-04T22:23:42.011Z,117.70
2018-11-04T22:26:10.945Z,102.43
2018-11-04T22:28:39.734Z,100.33
2018-11-04T22:31:09.039Z,96.00
2018-11-04T22:33:37.908Z,110.97
2018-11-04T22:36:06.866Z,101.07
2018-11-04T22:38:35.633Z,96.03
2018-11-04T22:41:05.141Z,109.07
2018-11-04T22:43:33.902Z,99.27
2018-11-04T22:46:03.375Z,101.03
2018-11-04T22:48:32.571Z,96.00
2018-11-04T22:51:01.429Z,93.50
2018-11-04T22:53:30.206Z,92.20
2018-11-04T22:55:59.266Z,94.58
2018-11-04T22:58:27.978Z,94.17
2018-11-04T23:01:01.717Z,90.80
2018-11-04T23:03:30.461Z,87.37
2018-11-04T23:06:07.309Z,96.47
2018-11-04T23:08:36.060Z,102.43
2018-11-04T23:11:05.041Z,95.20
2018-11-04T23:13:33.921Z,93.37
2018-11-04T23:16:02.707Z,91.20
2018-11-04T23:18:31.484Z,95.40
2018-11-04T23:21:00.541Z,86.93
2018-11-04T23:23:29.285Z,83.97
2018-11-04T23:25:58.090Z,97.25
2018-11-04T23:28:26.925Z,87.78
2018-11-04T23:30:55.638Z,84.67
2018-11-04T23:33:24.356Z,101.10
2018-11-04T23:35:53.179Z,89.62
2018-11-04T23:38:21.912Z,84.67
2018-11-04T23:40:50.678Z,85.57
2018-11-04T23:43:19.777Z,95.00
2018-11-04T23:45:48.501Z,87.27
2018-11-04T23:48:17.350Z,81.90
2018-11-04T23:50:46.182Z,90.25
2018-11-04T23:53:14.914Z,86.50
2018-11-04T23:55:43.699Z,90.90
2018-11-04T23:58:12.502Z,83.17
